createdAt,value
2022-10-02T00:01:20.285Z,100112.03
2022-10-02T00:03:49.898Z,100125.53
2022-10-02T00:06:23.181Z,100119.00
2022-10-02T00:08:55.953Z,100114.59
2022-10-02T00:11:28.181Z,100040.72
2022-10-02T00:13:59.878Z,100099.75
2022-10-02T00:16:35.297Z,100099.50
2022-10-02T00:19:03.985Z,100130.00
2022-10-02T00:21:42.003Z,100128.50
2022-10-02T00:24:15.901Z,100131.75
2022-10-02T00:26:53.851Z,100135.06
2022-10-02T00:29:33.113Z,100110.06
2022-10-02T00:32:16.417Z,100138.34
2022-10-02T00:34:57.977Z,100140.78
2022-10-02T00:37:36.712Z,100146.19
2022-10-02T00:40:29.381Z,100131.47
2022-10-02T00:43:11.088Z,100139.22
2022-10-02T00:45:54.803Z,100089.53
2022-10-02T00:48:40.008Z,100148.81
2022-10-02T00:51:16.444Z,100133.84
2022-10-02T00:53:54.929Z,100139.66
2022-10-02T00:56:32.100Z,100150.78
2022-10-02T00:59:20.031Z,100142.56
2022-10-02T01:01:53.093Z,100146.97
2022-10-02T01:04:29.862Z,100072.69
2022-10-02T01:06:58.436Z,100156.44
2022-10-02T01:09:28.748Z,100150.31
2022-10-02T01:11:57.074Z,100149.44
2022-10-02T01:14:33.311Z,100154.53
2022-10-02T01:17:01.459Z,100144.91
2022-10-02T01:19:38.176Z,100127.84
2022-10-02T01:22:12.088Z,100118.44
2022-10-02T01:24:48.514Z,100142.56
2022-10-02T01:27:16.590Z,100145.88
2022-10-02T01:29:46.983Z,100145.88
2022-10-02T01:32:14.819Z,100149.84
2022-10-02T01:34:43.549Z,100027.03
2022-10-02T01:37:12.863Z,100147.34
2022-10-02T01:39:41.643Z,100121.25
2022-10-02T01:42:10.860Z,99993.88
2022-10-02T01:44:39.226Z,100150.78
2022-10-02T01:47:10.781Z,100097.09
2022-10-02T01:49:57.195Z,100144.22
2022-10-02T01:52:37.660Z,100118.50
2022-10-02T01:55:21.658Z,100147.88
2022-10-02T01:58:00.804Z,100150.72
2022-10-02T02:00:39.571Z,100153.94
2022-10-02T02:03:15.882Z,100153.94
2022-10-02T02:05:50.778Z,100157.50
2022-10-02T02:08:28.702Z,100158.22
2022-10-02T02:11:10.514Z,100141.56
2022-10-02T02:13:46.872Z,100079.69
2022-10-02T02:16:22.811Z,100150.59
2022-10-02T02:18:55.150Z,100155.69
2022-10-02T02:21:28.862Z,100153.88
2022-10-02T02:24:00.509Z,100155.44
2022-10-02T02:26:29.963Z,100157.09
2022-10-02T02:29:03.916Z,100138.47
2022-10-02T02:31:38.664Z,100159.84
2022-10-02T02:34:10.895Z,100129.03
2022-10-02T02:36:42.496Z,100158.13
2022-10-02T02:39:13.977Z,100163.53
2022-10-02T02:41:46.927Z,100066.06
2022-10-02T02:44:23.141Z,100163.00
2022-10-02T02:47:05.144Z,100129.41
2022-10-02T02:49:42.047Z,100155.94
2022-10-02T02:52:15.021Z,100102.34
2022-10-02T02:54:49.452Z,100162.84
2022-10-02T02:57:21.421Z,100104.09
2022-10-02T02:59:52.842Z,100167.72
2022-10-02T03:02:20.772Z,100168.31
2022-10-02T03:04:48.557Z,100162.03
2022-10-02T03:07:18.545Z,100163.38
2022-10-02T03:09:58.110Z,100154.50
2022-10-02T03:12:39.700Z,100142.03
2022-10-02T03:15:28.511Z,100163.78
2022-10-02T03:18:11.827Z,100157.47
2022-10-02T03:20:44.183Z,100138.53
2022-10-02T03:23:18.943Z,100152.47
2022-10-02T03:25:52.546Z,100129.38
2022-10-02T03:28:50.526Z,100164.38
2022-10-02T03:31:17.791Z,100156.38
2022-10-02T03:33:47.493Z,100128.97
2022-10-02T03:36:17.963Z,100132.25
2022-10-02T03:38:56.860Z,100118.16
2022-10-02T03:41:34.447Z,100161.78
2022-10-02T03:44:03.058Z,100156.91
2022-10-02T03:46:32.325Z,100163.16
2022-10-02T03:49:00.349Z,100171.19
2022-10-02T03:51:28.165Z,100163.50
2022-10-02T03:53:56.017Z,100158.16
2022-10-02T03:56:34.973Z,100093.34
2022-10-02T03:59:13.625Z,100149.16
2022-10-02T04:01:49.216Z,100155.81
2022-10-02T04:04:24.548Z,100143.63
2022-10-02T04:06:57.032Z,100158.34
2022-10-02T04:09:30.976Z,100168.38
2022-10-02T04:12:02.433Z,100153.00
2022-10-02T04:14:38.632Z,100154.22
2022-10-02T04:17:13.528Z,100155.19
2022-10-02T04:19:47.413Z,100122.03
2022-10-02T04:22:23.959Z,100152.19
2022-10-02T04:24:56.406Z,100084.78
2022-10-02T04:27:34.744Z,100154.50
2022-10-02T04:30:06.096Z,100165.31
2022-10-02T04:32:37.285Z,100150.78
2022-10-02T04:35:13.640Z,100140.22
2022-10-02T04:38:08.777Z,100040.56
2022-10-02T04:40:50.610Z,100156.53
2022-10-02T04:43:36.504Z,100144.19
2022-10-02T04:46:14.915Z,100144.34
2022-10-02T04:49:14.307Z,100148.09
2022-10-02T04:51:57.127Z,100145.78
2022-10-02T04:54:58.812Z,100152.13
2022-10-02T04:57:51.982Z,100172.06
2022-10-02T05:00:21.591Z,100167.09
2022-10-02T05:03:04.969Z,100154.16
2022-10-02T05:05:49.424Z,100173.91
2022-10-02T05:08:31.542Z,100177.13
2022-10-02T05:11:22.321Z,100143.22
2022-10-02T05:14:03.269Z,100152.31
2022-10-02T05:16:46.900Z,100140.47
2022-10-02T05:19:48.431Z,100174.19
2022-10-02T05:22:54.683Z,100182.38
2022-10-02T05:25:39.246Z,100185.28
2022-10-02T05:28:34.065Z,100160.66
2022-10-02T05:31:10.390Z,100179.97
2022-10-02T05:33:57.665Z,100169.63
2022-10-02T05:36:41.466Z,100189.06
2022-10-02T05:39:14.377Z,100192.84
2022-10-02T05:41:50.991Z,100196.31
2022-10-02T05:44:22.056Z,100174.59
2022-10-02T05:46:58.101Z,100197.94
2022-10-02T05:49:31.756Z,100200.13
2022-10-02T05:52:04.052Z,100194.38
2022-10-02T05:54:42.680Z,100211.63
2022-10-02T05:57:19.387Z,100207.59
2022-10-02T05:59:58.012Z,100206.25
2022-10-02T06:02:39.051Z,100207.34
2022-10-02T06:05:16.053Z,100214.03
2022-10-02T06:07:48.204Z,100130.56
2022-10-02T06:10:20.502Z,100217.13
2022-10-02T06:12:56.700Z,100216.47
2022-10-02T06:15:29.378Z,100219.13
2022-10-02T06:18:01.109Z,100211.09
2022-10-02T06:20:35.084Z,100205.63
2022-10-02T06:23:08.516Z,100185.28
2022-10-02T06:25:41.230Z,100211.69
2022-10-02T06:28:15.825Z,100212.47
2022-10-02T06:30:49.655Z,100211.31
2022-10-02T06:33:22.193Z,100219.81
2022-10-02T06:36:25.310Z,100208.59
2022-10-02T06:39:13.757Z,100230.28
2022-10-02T06:41:51.825Z,100219.84
2022-10-02T06:44:28.205Z,100224.13
2022-10-02T06:47:09.264Z,100145.69
2022-10-02T06:49:54.604Z,100220.47
2022-10-02T06:52:37.922Z,100233.50
2022-10-02T06:55:25.063Z,100231.59
2022-10-02T06:58:10.010Z,100204.75
2022-10-02T07:00:47.881Z,100234.59
2022-10-02T07:03:38.554Z,100241.66
2022-10-02T07:06:17.151Z,100248.75
2022-10-02T07:09:06.164Z,100244.75
2022-10-02T07:11:44.549Z,100247.75
2022-10-02T07:14:29.006Z,100244.00
2022-10-02T07:17:24.087Z,100252.25
2022-10-02T07:20:07.314Z,100247.34
2022-10-02T07:22:50.969Z,100255.91
2022-10-02T07:25:46.743Z,100254.16
2022-10-02T07:28:21.222Z,100248.31
2022-10-02T07:30:59.070Z,100260.16
2022-10-02T07:33:45.900Z,100248.94
2022-10-02T07:36:20.870Z,100266.97
2022-10-02T07:39:11.414Z,100273.28
2022-10-02T07:42:02.785Z,100259.28
2022-10-02T07:44:43.967Z,100236.56
2022-10-02T07:47:25.482Z,100261.50
2022-10-02T07:49:59.608Z,100246.69
2022-10-02T07:52:38.556Z,100248.34
2022-10-02T07:55:16.035Z,100286.66
2022-10-02T07:57:52.330Z,100284.59
2022-10-02T08:00:24.100Z,100292.59
2022-10-02T08:02:57.199Z,100285.16
2022-10-02T08:05:31.192Z,100287.47
2022-10-02T08:08:03.805Z,100279.84
2022-10-02T08:10:37.827Z,100284.84
2022-10-02T08:13:14.681Z,100289.34
2022-10-02T08:15:45.548Z,100286.88
2022-10-02T08:18:35.937Z,100314.19
2022-10-02T08:21:13.178Z,100312.69
2022-10-02T08:23:47.415Z,100189.69
2022-10-02T08:26:22.941Z,100311.13
2022-10-02T08:29:01.126Z,100287.03
2022-10-02T08:31:29.283Z,100287.09
2022-10-02T08:33:58.049Z,100303.97
2022-10-02T08:36:48.058Z,100303.63
2022-10-02T08:39:28.861Z,100305.56
2022-10-02T08:42:34.113Z,100312.50
2022-10-02T08:45:40.956Z,100314.41
2022-10-02T08:48:49.666Z,100316.66
2022-10-02T08:51:50.614Z,100315.69
2022-10-02T08:54:46.894Z,100263.09
2022-10-02T08:57:54.064Z,100325.03
2022-10-02T09:00:26.086Z,100315.69
2022-10-02T09:03:47.783Z,100315.88
2022-10-02T09:07:04.295Z,100315.16
2022-10-02T09:10:13.400Z,100321.38
2022-10-02T09:13:08.840Z,100337.69
2022-10-02T09:15:46.807Z,100324.06
2022-10-02T09:18:23.533Z,100328.28
2022-10-02T09:21:16.839Z,100336.50
2022-10-02T09:24:17.610Z,100335.13
2022-10-02T09:27:02.126Z,100326.22
2022-10-02T09:30:11.454Z,100337.56
2022-10-02T09:33:16.926Z,100331.19
2022-10-02T09:36:23.979Z,100332.75
2022-10-02T09:39:10.082Z,100334.03
2022-10-02T09:42:17.096Z,100336.47
2022-10-02T09:45:33.209Z,100331.78
2022-10-02T09:48:33.881Z,100308.22
2022-10-02T09:51:42.328Z,100336.13
2022-10-02T09:54:48.942Z,100323.47
2022-10-02T09:58:05.236Z,100338.34
2022-10-02T10:00:57.204Z,100337.03
2022-10-02T10:03:47.599Z,100333.47
2022-10-02T10:06:25.984Z,100343.13
2022-10-02T10:09:34.971Z,100336.03
2022-10-02T10:12:56.514Z,100341.59
2022-10-02T10:16:01.396Z,100336.13
2022-10-02T10:18:48.755Z,100324.31
2022-10-02T10:22:00.916Z,100335.22
2022-10-02T10:25:18.762Z,100334.63
2022-10-02T10:28:20.327Z,100340.09
2022-10-02T10:31:29.927Z,100343.09
2022-10-02T10:34:31.392Z,100339.56
2022-10-02T10:37:20.021Z,100284.06
2022-10-02T10:40:15.664Z,100338.97
2022-10-02T10:43:42.496Z,100335.09
2022-10-02T10:46:36.815Z,100325.81
2022-10-02T10:49:38.664Z,100338.31
2022-10-02T10:52:16.213Z,100338.09
2022-10-02T10:54:56.909Z,100343.97
2022-10-02T10:57:36.858Z,100333.63
2022-10-02T11:00:26.464Z,100346.16
2022-10-02T11:03:38.236Z,100332.97
2022-10-02T11:06:40.129Z,100345.88
2022-10-02T11:09:52.423Z,100339.72
2022-10-02T11:13:05.064Z,100347.81
2022-10-02T11:16:07.421Z,100350.81
2022-10-02T11:18:55.870Z,100343.13
2022-10-02T11:21:42.146Z,100349.22
2022-10-02T11:24:24.855Z,100337.72
2022-10-02T11:27:08.923Z,100344.34
2022-10-02T11:30:03.398Z,100297.97
2022-10-02T11:33:02.216Z,100330.41
2022-10-02T11:35:38.174Z,100338.06
2022-10-02T11:38:38.833Z,100321.72
2022-10-02T11:41:24.050Z,100325.66
2022-10-02T11:44:06.230Z,100327.97
2022-10-02T11:46:58.273Z,100347.22
2022-10-02T11:50:01.973Z,100362.88
2022-10-02T11:53:08.945Z,100371.13
2022-10-02T11:55:57.156Z,100365.53
2022-10-02T11:58:41.865Z,100354.69
2022-10-02T12:01:18.095Z,100363.28
2022-10-02T12:04:16.529Z,100360.13
2022-10-02T12:07:07.638Z,100365.00
2022-10-02T12:09:48.283Z,100359.53
2022-10-02T12:12:31.453Z,100370.75
2022-10-02T12:15:07.121Z,100370.41
2022-10-02T12:18:05.643Z,100376.72
2022-10-02T12:21:08.089Z,100367.13
2022-10-02T12:24:07.119Z,100366.88
2022-10-02T12:27:02.662Z,100363.81
2022-10-02T12:30:00.672Z,100353.78
2022-10-02T12:32:42.152Z,100366.56
2022-10-02T12:35:26.237Z,100371.59
2022-10-02T12:38:02.587Z,100370.03
2022-10-02T12:40:35.123Z,100372.47
2022-10-02T12:43:20.660Z,100368.38
2022-10-02T12:46:06.356Z,100356.72
2022-10-02T12:48:58.271Z,100357.16
2022-10-02T12:51:36.345Z,100359.22
2022-10-02T12:54:33.308Z,100371.88
2022-10-02T12:57:45.873Z,100363.84
2022-10-02T13:00:16.432Z,100340.34
2022-10-02T13:03:33.277Z,100368.88
2022-10-02T13:06:55.216Z,100337.56
2022-10-02T13:09:44.519Z,100367.72
2022-10-02T13:12:23.854Z,100368.94
2022-10-02T13:15:21.476Z,100350.41
2022-10-02T13:17:58.277Z,100356.50
2022-10-02T13:20:39.847Z,100365.75
2022-10-02T13:23:21.851Z,100336.69
2022-10-02T13:26:06.746Z,100368.59
2022-10-02T13:29:31.439Z,100365.19
2022-10-02T13:32:14.968Z,100365.97
2022-10-02T13:35:01.412Z,100367.97
2022-10-02T13:37:42.248Z,100376.72
2022-10-02T13:40:25.378Z,100376.78
2022-10-02T13:43:42.353Z,100356.00
2022-10-02T13:46:22.621Z,100377.78
2022-10-02T13:48:56.942Z,100387.41
2022-10-02T13:51:32.724Z,100378.81
2022-10-02T13:54:35.761Z,100387.03
2022-10-02T13:57:10.867Z,100287.72
2022-10-02T13:59:55.055Z,100399.91
2022-10-02T14:02:39.961Z,100399.44
2022-10-02T14:05:17.090Z,100421.53
2022-10-02T14:08:11.712Z,100435.66
2022-10-02T14:10:59.498Z,100448.03
2022-10-02T14:13:40.566Z,100449.06
2022-10-02T14:16:25.598Z,100435.25
2022-10-02T14:19:13.644Z,100468.38
2022-10-02T14:21:52.446Z,100461.03
2022-10-02T14:25:04.199Z,100367.03
2022-10-02T14:28:15.862Z,100451.16
2022-10-02T14:30:57.802Z,100457.69
2022-10-02T14:33:37.462Z,100453.03
2022-10-02T14:36:12.090Z,100455.72
2022-10-02T14:38:55.191Z,100444.31
2022-10-02T14:41:40.845Z,100415.06
2022-10-02T14:44:29.729Z,100407.78
2022-10-02T14:47:13.305Z,100438.22
2022-10-02T14:50:11.727Z,100457.25
2022-10-02T14:52:53.707Z,100451.53
2022-10-02T14:55:53.006Z,100474.84
2022-10-02T14:58:31.120Z,100475.91
2022-10-02T15:01:17.984Z,100468.88
2022-10-02T15:04:04.851Z,100469.09
2022-10-02T15:06:48.654Z,100479.09
2022-10-02T15:09:23.533Z,100478.16
2022-10-02T15:12:09.337Z,100481.97
2022-10-02T15:14:43.845Z,100479.63
2022-10-02T15:17:35.854Z,100470.63
2022-10-02T15:20:13.285Z,100463.75
2022-10-02T15:22:48.392Z,100471.53
2022-10-02T15:25:18.549Z,100478.19
2022-10-02T15:27:54.957Z,100480.06
2022-10-02T15:30:26.793Z,100478.00
2022-10-02T15:33:11.274Z,100490.53
2022-10-02T15:35:54.175Z,100487.84
2022-10-02T15:38:50.875Z,100496.31
2022-10-02T15:41:43.085Z,100491.69
2022-10-02T15:44:30.263Z,100499.41
2022-10-02T15:47:09.735Z,100500.69
2022-10-02T15:49:52.400Z,100511.63
2022-10-02T15:52:35.710Z,100484.66
2022-10-02T15:55:19.468Z,100486.56
2022-10-02T15:58:04.300Z,100524.41
2022-10-02T16:00:58.822Z,100507.03
2022-10-02T16:03:35.534Z,100514.31
2022-10-02T16:06:14.078Z,100513.13
2022-10-02T16:09:10.166Z,100508.69
2022-10-02T16:11:59.003Z,100523.84
2022-10-02T16:14:41.028Z,100519.72
2022-10-02T16:17:37.093Z,100539.06
2022-10-02T16:20:23.640Z,100543.34
2022-10-02T16:23:08.492Z,100522.84
2022-10-02T16:26:03.205Z,100552.22
2022-10-02T16:28:45.276Z,100550.94
2022-10-02T16:31:37.389Z,100565.13
2022-10-02T16:34:18.794Z,100573.91
2022-10-02T16:36:52.698Z,100562.25
2022-10-02T16:39:41.039Z,100564.06
2022-10-02T16:42:22.164Z,100568.00
2022-10-02T16:45:03.839Z,100580.25
2022-10-02T16:47:44.895Z,100471.09
2022-10-02T16:50:20.372Z,100590.03
2022-10-02T16:52:53.996Z,100556.31
2022-10-02T16:55:30.411Z,100596.72
2022-10-02T16:58:11.021Z,100597.31
2022-10-02T17:00:51.075Z,100599.56
2022-10-02T17:03:28.405Z,100616.66
2022-10-02T17:06:04.444Z,100622.53
2022-10-02T17:08:39.342Z,100616.19
2022-10-02T17:11:18.260Z,100615.56
2022-10-02T17:13:55.961Z,100622.09
2022-10-02T17:16:29.378Z,100609.72
2022-10-02T17:18:59.359Z,100628.56
2022-10-02T17:21:32.771Z,100629.63
2022-10-02T17:24:32.234Z,100640.94
2022-10-02T17:27:12.763Z,100640.00
2022-10-02T17:29:51.514Z,100626.78
2022-10-02T17:32:35.839Z,100650.03
2022-10-02T17:35:11.773Z,100657.41
2022-10-02T17:38:11.182Z,100656.06
2022-10-02T17:40:46.183Z,100663.91
2022-10-02T17:43:24.298Z,100671.28
2022-10-02T17:46:05.436Z,100661.03
2022-10-02T17:48:46.403Z,100673.38
2022-10-02T17:51:52.504Z,100687.94
2022-10-02T17:55:07.114Z,100695.47
2022-10-02T17:57:52.492Z,100688.56
2022-10-02T18:00:26.337Z,100701.41
2022-10-02T18:03:26.393Z,100714.84
2022-10-02T18:06:05.490Z,100713.19
2022-10-02T18:09:06.655Z,100721.25
2022-10-02T18:11:54.347Z,100728.13
2022-10-02T18:14:36.046Z,100715.97
2022-10-02T18:17:16.383Z,100729.75
2022-10-02T18:19:55.187Z,100728.63
2022-10-02T18:22:47.360Z,100740.97
2022-10-02T18:25:34.819Z,100682.88
2022-10-02T18:28:14.283Z,100689.41
2022-10-02T18:30:50.116Z,100736.03
2022-10-02T18:33:34.321Z,100750.81
2022-10-02T18:36:22.858Z,100750.75
2022-10-02T18:39:00.499Z,100722.78
2022-10-02T18:41:43.153Z,100754.78
2022-10-02T18:44:34.543Z,100703.19
2022-10-02T18:47:14.577Z,100745.66
2022-10-02T18:49:53.282Z,100752.13
2022-10-02T18:52:47.249Z,100766.91
2022-10-02T18:55:38.008Z,100783.56
2022-10-02T18:58:21.415Z,100776.03
2022-10-02T19:01:26.645Z,100781.75
2022-10-02T19:04:16.620Z,100795.19
2022-10-02T19:06:50.738Z,100674.69
2022-10-02T19:09:27.052Z,100610.50
2022-10-02T19:12:01.651Z,100803.75
2022-10-02T19:14:36.159Z,100802.25
2022-10-02T19:17:08.676Z,100798.06
2022-10-02T19:19:36.908Z,100805.53
2022-10-02T19:22:16.140Z,100810.34
2022-10-02T19:24:46.447Z,100813.88
2022-10-02T19:27:18.450Z,100817.97
2022-10-02T19:29:54.359Z,100764.75
2022-10-02T19:32:27.315Z,100822.97
2022-10-02T19:35:03.807Z,100829.19
2022-10-02T19:37:34.096Z,100796.66
2022-10-02T19:40:03.904Z,100833.00
2022-10-02T19:42:45.440Z,100834.72
2022-10-02T19:45:25.486Z,100836.53
2022-10-02T19:47:57.951Z,100836.34
2022-10-02T19:50:35.892Z,100841.56
2022-10-02T19:53:07.867Z,100852.69
2022-10-02T19:55:40.593Z,100849.47
2022-10-02T19:58:16.955Z,100846.22
2022-10-02T20:00:44.865Z,100840.34
2022-10-02T20:03:17.684Z,100831.88
2022-10-02T20:05:49.169Z,100848.22
2022-10-02T20:08:23.282Z,100839.50
2022-10-02T20:11:00.257Z,100861.75
2022-10-02T20:13:37.279Z,100856.03
2022-10-02T20:16:31.478Z,100860.91
2022-10-02T20:18:59.587Z,100869.81
2022-10-02T20:21:37.067Z,100873.19
2022-10-02T20:24:14.612Z,100876.09
2022-10-02T20:26:45.026Z,100863.06
2022-10-02T20:29:18.335Z,100850.44
2022-10-02T20:31:50.968Z,100861.34
2022-10-02T20:34:26.723Z,100874.44
2022-10-02T20:37:05.344Z,100890.34
2022-10-02T20:39:39.245Z,100896.72
2022-10-02T20:42:14.681Z,100896.03
2022-10-02T20:44:42.958Z,100866.19
2022-10-02T20:47:40.745Z,100899.78
2022-10-02T20:50:40.447Z,100891.97
2022-10-02T20:53:38.565Z,100898.09
2022-10-02T20:56:22.976Z,100896.69
2022-10-02T20:59:31.588Z,100906.22
2022-10-02T21:02:17.821Z,100762.34
2022-10-02T21:05:18.456Z,100924.88
2022-10-02T21:08:15.670Z,100934.81
2022-10-02T21:11:09.711Z,100930.59
2022-10-02T21:14:09.292Z,100936.81
2022-10-02T21:17:07.667Z,100936.91
2022-10-02T21:20:27.851Z,100942.44
2022-10-02T21:23:23.555Z,100944.00
2022-10-02T21:26:29.155Z,100945.03
2022-10-02T21:29:17.372Z,100953.19
2022-10-02T21:32:06.344Z,100950.56
2022-10-02T21:34:47.244Z,100948.16
2022-10-02T21:37:25.730Z,100958.66
2022-10-02T21:40:27.226Z,100962.50
2022-10-02T21:43:39.870Z,100965.41
2022-10-02T21:46:42.305Z,100968.19
2022-10-02T21:49:50.890Z,100971.06
2022-10-02T21:52:55.335Z,100977.09
2022-10-02T21:55:51.506Z,100970.06
2022-10-02T21:58:44.846Z,100990.00
2022-10-02T22:01:36.348Z,100992.97
2022-10-02T22:04:38.203Z,100998.44
2022-10-02T22:07:12.132Z,100982.59
2022-10-02T22:09:53.383Z,101007.38
2022-10-02T22:12:38.440Z,101002.06
2022-10-02T22:15:15.991Z,101005.66
2022-10-02T22:17:58.977Z,101009.50
2022-10-02T22:20:44.293Z,100990.97
2022-10-02T22:23:30.233Z,100990.22
2022-10-02T22:26:12.501Z,101014.88
2022-10-02T22:28:45.414Z,101015.91
2022-10-02T22:31:40.267Z,101008.72
2022-10-02T22:34:22.366Z,100968.47
2022-10-02T22:37:14.899Z,100998.59
2022-10-02T22:39:47.961Z,100987.03
2022-10-02T22:42:24.534Z,100999.38
2022-10-02T22:44:58.041Z,101015.25
2022-10-02T22:47:36.999Z,101019.13
2022-10-02T22:50:11.421Z,101022.59
2022-10-02T22:52:49.041Z,101020.06
2022-10-02T22:55:23.093Z,101014.63
2022-10-02T22:57:58.870Z,100995.41
2022-10-02T23:00:31.833Z,101018.28
2022-10-02T23:03:08.372Z,101016.47
2022-10-02T23:05:43.249Z,101028.91
2022-10-02T23:08:32.959Z,101025.59
2022-10-02T23:11:09.439Z,101026.22
2022-10-02T23:13:45.889Z,101031.38
2022-10-02T23:16:21.204Z,101018.09
2022-10-02T23:18:55.307Z,100924.75
2022-10-02T23:21:30.267Z,100995.59
2022-10-02T23:24:08.189Z,100962.91
2022-10-02T23:26:40.322Z,101020.59
2022-10-02T23:29:19.954Z,101023.53
2022-10-02T23:31:55.396Z,101042.53
2022-10-02T23:34:41.031Z,101028.28
2022-10-02T23:37:18.454Z,101045.06
2022-10-02T23:39:55.078Z,101047.50
2022-10-02T23:42:28.856Z,101037.63
2022-10-02T23:45:04.246Z,101056.06
2022-10-02T23:47:45.575Z,101052.66
2022-10-02T23:50:22.761Z,101050.78
2022-10-02T23:53:03.859Z,101047.34
2022-10-02T23:56:01.439Z,101055.78
2022-10-02T23:58:50.839Z,101048.72
